Time;durP1;ratioP1;P1;durP2;ratioP2;P2;SDS_P1;SDS_P2;PMS_P1;PMS_P2;Temp;Humidity;BMP_temperature;BMP_pressure;BME280_temperature;BME280_humidity;BME280_pressure;Samples;Min_cycle;Max_cycle;Signal;HPM_P1;HPM_P2
2022/03/16 00:00:39;;;;;;;30.17;23.77;;;;;;;;;;2076583;28;20173;-58
2022/03/16 00:01:39;;;;;;;33.07;25.13;;;;;;;;;;2074583;28;20217;-53
2022/03/16 00:02:40;;;;;;;28.10;23.60;;;;;;;;;;2071674;28;20243;-56
2022/03/16 00:03:40;;;;;;;35.57;24.17;;;;;;;;;;2074292;28;20531;-57
2022/03/16 00:04:40;;;;;;;27.17;22.97;;;;;;;;;;2074478;28;20192;-58
2022/03/16 00:05:40;;;;;;;28.13;23.60;;;;;;;;;;2074734;28;20244;-55
2022/03/16 00:06:41;;;;;;;31.50;23.23;;;;;;;;;;2070981;28;20185;-58
2022/03/16 00:07:41;;;;;;;32.50;23.97;;;;;;;;;;2074822;28;20165;-59
2022/03/16 00:08:41;;;;;;;34.80;23.80;;;;;;;;;;2074730;28;20195;-58
2022/03/16 00:09:44;;;;;;;29.47;23.47;;;;;;;;;;2074536;28;20273;-58
2022/03/16 00:10:44;;;;;;;33.53;24.03;;;;;;;;;;2074892;28;20164;-57
2022/03/16 00:11:44;;;;;;;28.97;23.27;;;;;;;;;;2074864;28;20256;-55
2022/03/16 00:12:44;;;;;;;32.17;24.23;;;;;;;;;;2074639;28;20195;-58
2022/03/16 00:13:45;;;;;;;30.20;24.33;;;;;;;;;;2074526;28;20215;-57
2022/03/16 00:14:45;;;;;;;32.23;25.77;;;;;;;;;;2074103;28;20223;-57
2022/03/16 00:15:45;;;;;;;36.33;25.97;;;;;;;;;;2074375;28;20183;-59
2022/03/16 00:16:45;;;;;;;34.27;26.33;;;;;;;;;;2074631;28;20176;-58
2022/03/16 00:17:46;;;;;;;34.03;26.07;;;;;;;;;;2074472;28;20601;-57
2022/03/16 00:18:46;;;;;;;32.30;25.83;;;;;;;;;;2061893;28;20182;-55
2022/03/16 00:19:46;;;;;;;35.20;24.93;;;;;;;;;;2067787;28;20166;-57
2022/03/16 00:20:48;;;;;;;39.87;26.20;;;;;;;;;;2074756;28;20173;-60
2022/03/16 00:21:48;;;;;;;36.53;24.63;;;;;;;;;;2075720;28;20519;-59
2022/03/16 00:22:48;;;;;;;33.00;24.50;;;;;;;;;;2075214;28;20165;-58
2022/03/16 00:23:49;;;;;;;30.33;23.43;;;;;;;;;;2074790;28;20187;-58
2022/03/16 00:24:49;;;;;;;31.57;23.77;;;;;;;;;;2066767;28;20165;-58
2022/03/16 00:25:49;;;;;;;30.97;24.23;;;;;;;;;;2067005;28;20724;-59
2022/03/16 00:26:49;;;;;;;30.87;23.67;;;;;;;;;;2075025;28;20223;-56
2022/03/16 00:27:50;;;;;;;29.10;22.87;;;;;;;;;;2074766;28;20162;-59
2022/03/16 00:28:50;;;;;;;28.90;24.13;;;;;;;;;;2070007;28;20208;-59
2022/03/16 00:29:50;;;;;;;31.53;24.00;;;;;;;;;;2073766;28;20172;-58
2022/03/16 00:30:50;;;;;;;31.67;23.83;;;;;;;;;;2069564;28;20174;-59
2022/03/16 00:31:51;;;;;;;32.10;23.97;;;;;;;;;;2068513;28;20169;-58
2022/03/16 00:32:51;;;;;;;28.17;23.90;;;;;;;;;;2063140;28;20182;-55
2022/03/16 00:33:51;;;;;;;27.70;22.93;;;;;;;;;;2059392;28;20667;-58
2022/03/16 00:34:51;;;;;;;31.13;23.47;;;;;;;;;;2070445;28;20213;-57
2022/03/16 00:35:54;;;;;;;29.60;22.53;;;;;;;;;;2057452;28;20198;-56
2022/03/16 00:36:54;;;;;;;30.27;23.50;;;;;;;;;;2065463;28;20581;-55
2022/03/16 00:37:55;;;;;;;35.27;23.07;;;;;;;;;;2070115;28;20634;-61
2022/03/16 00:38:55;;;;;;;31.37;23.13;;;;;;;;;;2074132;28;20590;-58
2022/03/16 00:39:56;;;;;;;32.60;22.73;;;;;;;;;;2073137;28;20281;-56
2022/03/16 00:40:56;;;;;;;28.67;22.93;;;;;;;;;;2073347;28;20279;-59
2022/03/16 00:41:57;;;;;;;28.43;23.20;;;;;;;;;;2070595;28;20166;-58
2022/03/16 00:42:57;;;;;;;29.10;22.20;;;;;;;;;;2060215;28;20273;-58
2022/03/16 00:43:58;;;;;;;28.63;23.80;;;;;;;;;;2073137;28;20216;-55
2022/03/16 00:44:58;;;;;;;29.53;23.10;;;;;;;;;;2065311;28;20201;-57
2022/03/16 00:45:58;;;;;;;32.07;23.83;;;;;;;;;;2069861;28;20717;-55
2022/03/16 00:46:59;;;;;;;26.27;21.40;;;;;;;;;;2070112;28;20170;-55
2022/03/16 00:47:59;;;;;;;27.47;22.83;;;;;;;;;;2065342;28;20212;-57
2022/03/16 00:48:59;;;;;;;29.87;22.23;;;;;;;;;;2069000;28;20305;-58
2022/03/16 00:50:00;;;;;;;33.30;22.90;;;;;;;;;;2073885;28;20657;-60
2022/03/16 00:51:00;;;;;;;24.90;21.43;;;;;;;;;;2068166;28;20174;-58
2022/03/16 00:52:01;;;;;;;31.10;22.23;;;;;;;;;;2065681;28;20292;-57
2022/03/16 00:53:01;;;;;;;27.97;21.07;;;;;;;;;;2073920;28;20215;-58
2022/03/16 00:54:01;;;;;;;30.40;21.87;;;;;;;;;;2076137;28;20200;-58
2022/03/16 00:55:02;;;;;;;29.27;22.33;;;;;;;;;;2068470;28;20193;-58
2022/03/16 00:56:02;;;;;;;31.50;23.70;;;;;;;;;;2057872;28;20186;-56
2022/03/16 00:57:02;;;;;;;34.80;24.20;;;;;;;;;;2069145;28;20217;-57
2022/03/16 00:58:03;;;;;;;28.57;22.50;;;;;;;;;;2075614;28;20791;-54
2022/03/16 00:59:03;;;;;;;28.90;22.77;;;;;;;;;;2074610;28;20184;-58
2022/03/16 01:00:04;;;;;;;28.70;22.33;;;;;;;;;;2066435;28;20182;-56
2022/03/16 01:01:05;;;;;;;27.30;21.73;;;;;;;;;;2059027;28;20186;-58
2022/03/16 01:02:06;;;;;;;30.53;22.37;;;;;;;;;;2070883;28;20200;-55
2022/03/16 01:03:06;;;;;;;29.17;21.47;;;;;;;;;;2067840;28;20182;-57
2022/03/16 01:04:06;;;;;;;29.00;21.53;;;;;;;;;;2066165;28;20208;-54
2022/03/16 01:05:08;;;;;;;32.90;23.10;;;;;;;;;;2069740;28;20967;-59
2022/03/16 01:06:15;;;;;;;27.33;22.07;;;;;;;;;;2071009;28;20180;-57
2022/03/16 01:07:16;;;;;;;27.73;22.53;;;;;;;;;;2074634;28;20192;-58
2022/03/16 01:08:16;;;;;;;30.13;22.67;;;;;;;;;;2067794;28;20177;-58
2022/03/16 01:09:16;;;;;;;28.03;21.83;;;;;;;;;;2073580;28;20245;-56
2022/03/16 01:10:17;;;;;;;30.13;22.27;;;;;;;;;;2077723;28;20205;-56
2022/03/16 01:11:17;;;;;;;26.07;22.23;;;;;;;;;;2078113;28;20177;-56
2022/03/16 01:12:17;;;;;;;26.60;21.37;;;;;;;;;;2078057;28;20233;-57
2022/03/16 01:13:18;;;;;;;28.30;22.00;;;;;;;;;;2075016;28;20200;-54
2022/03/16 01:14:18;;;;;;;29.37;21.70;;;;;;;;;;2076699;28;20181;-58
2022/03/16 01:15:23;;;;;;;32.67;21.80;;;;;;;;;;2070949;28;20213;-54
2022/03/16 01:16:23;;;;;;;25.03;21.80;;;;;;;;;;2069376;28;20248;-56
2022/03/16 01:17:24;;;;;;;27.90;22.07;;;;;;;;;;2068876;28;20813;-58
2022/03/16 01:18:25;;;;;;;27.47;22.97;;;;;;;;;;2068524;28;20209;-55
2022/03/16 01:19:26;;;;;;;29.17;22.53;;;;;;;;;;2067371;28;20204;-60
2022/03/16 01:20:26;;;;;;;30.80;24.13;;;;;;;;;;2059549;28;20727;-60
2022/03/16 01:21:26;;;;;;;29.87;22.70;;;;;;;;;;2067036;28;20174;-54
2022/03/16 01:22:27;;;;;;;29.73;21.47;;;;;;;;;;2067463;28;20225;-59
2022/03/16 01:23:27;;;;;;;32.37;23.37;;;;;;;;;;2059664;28;20277;-58
2022/03/16 01:24:27;;;;;;;25.90;21.67;;;;;;;;;;2066808;28;20217;-58
2022/03/16 01:25:28;;;;;;;29.57;22.97;;;;;;;;;;2069511;28;20272;-58
2022/03/16 01:26:29;;;;;;;28.27;22.83;;;;;;;;;;2069901;28;20416;-58
2022/03/16 01:27:29;;;;;;;33.33;22.57;;;;;;;;;;2068393;28;20177;-56
2022/03/16 01:28:29;;;;;;;29.60;22.17;;;;;;;;;;2073371;28;20188;-61
2022/03/16 01:29:30;;;;;;;29.20;22.37;;;;;;;;;;2063672;28;20178;-57
2022/03/16 01:30:30;;;;;;;32.70;22.57;;;;;;;;;;2065480;28;20296;-57
2022/03/16 01:31:30;;;;;;;27.13;21.70;;;;;;;;;;2064884;28;20222;-58
2022/03/16 01:32:30;;;;;;;29.10;23.03;;;;;;;;;;2064248;28;20173;-58
2022/03/16 01:33:31;;;;;;;29.47;21.57;;;;;;;;;;2063278;28;20174;-57
2022/03/16 01:34:31;;;;;;;30.40;20.83;;;;;;;;;;2064548;28;20232;-58
2022/03/16 01:35:31;;;;;;;30.57;22.53;;;;;;;;;;2064824;28;20181;-57
2022/03/16 01:36:32;;;;;;;32.17;24.10;;;;;;;;;;2065389;28;20281;-58
2022/03/16 01:37:32;;;;;;;27.53;23.87;;;;;;;;;;2065846;28;20196;-57
2022/03/16 01:38:34;;;;;;;27.53;24.23;;;;;;;;;;2074840;28;20298;-59
2022/03/16 01:39:36;;;;;;;33.10;24.53;;;;;;;;;;2074142;28;20184;-55
2022/03/16 01:40:36;;;;;;;31.63;23.27;;;;;;;;;;2075666;28;20165;-56
2022/03/16 01:41:36;;;;;;;31.57;23.83;;;;;;;;;;2065911;28;20185;-56
2022/03/16 01:42:36;;;;;;;31.03;24.73;;;;;;;;;;2060373;28;20181;-59
2022/03/16 01:43:38;;;;;;;31.87;23.87;;;;;;;;;;2065490;28;20182;-56
2022/03/16 01:44:44;;;;;;;30.50;24.60;;;;;;;;;;2074092;28;20177;-59
2022/03/16 01:45:47;;;;;;;30.37;23.87;;;;;;;;;;2073978;28;20180;-55
2022/03/16 01:46:47;;;;;;;30.47;23.60;;;;;;;;;;2066076;28;20208;-58
2022/03/16 01:47:48;;;;;;;29.50;22.60;;;;;;;;;;2057627;28;20261;-59
2022/03/16 01:48:50;;;;;;;30.90;22.77;;;;;;;;;;2067243;28;20284;-58
2022/03/16 01:49:51;;;;;;;30.80;24.23;;;;;;;;;;2073808;28;20173;-58
2022/03/16 01:50:53;;;;;;;31.40;24.37;;;;;;;;;;2074238;28;20184;-57
2022/03/16 01:51:53;;;;;;;32.17;23.43;;;;;;;;;;2068122;28;20300;-57
2022/03/16 01:52:53;;;;;;;31.00;23.10;;;;;;;;;;2069461;28;20173;-58
2022/03/16 01:53:54;;;;;;;31.93;24.47;;;;;;;;;;2070712;28;20270;-61
2022/03/16 01:54:55;;;;;;;34.03;25.60;;;;;;;;;;2067993;28;20184;-58
2022/03/16 01:55:56;;;;;;;37.13;25.40;;;;;;;;;;2062753;28;20194;-57
2022/03/16 01:56:56;;;;;;;32.47;25.03;;;;;;;;;;2057552;28;20574;-57
2022/03/16 01:57:57;;;;;;;33.50;24.20;;;;;;;;;;2057308;28;20170;-57
2022/03/16 01:58:57;;;;;;;32.37;24.63;;;;;;;;;;2065682;28;20241;-58
2022/03/16 01:59:57;;;;;;;32.23;24.77;;;;;;;;;;2066522;28;20173;-58
2022/03/16 02:00:58;;;;;;;28.73;23.90;;;;;;;;;;2057139;28;20178;-59
2022/03/16 02:01:59;;;;;;;34.03;24.60;;;;;;;;;;2057172;28;20205;-59
2022/03/16 02:02:59;;;;;;;28.80;24.07;;;;;;;;;;2057759;28;20205;-58
2022/03/16 02:04:00;;;;;;;31.63;23.67;;;;;;;;;;2065616;28;20678;-55
2022/03/16 02:05:00;;;;;;;32.93;23.57;;;;;;;;;;2065662;28;20268;-58
2022/03/16 02:06:01;;;;;;;33.57;24.57;;;;;;;;;;2065727;28;20260;-57
2022/03/16 02:07:02;;;;;;;29.50;23.90;;;;;;;;;;2076368;28;20647;-58
2022/03/16 02:08:04;;;;;;;33.23;25.00;;;;;;;;;;2076588;28;20239;-56
2022/03/16 02:09:05;;;;;;;33.30;24.13;;;;;;;;;;2073130;28;20176;-58
2022/03/16 02:10:05;;;;;;;32.03;24.63;;;;;;;;;;2073522;28;20692;-57
2022/03/16 02:11:06;;;;;;;34.10;24.73;;;;;;;;;;2073495;28;20220;-57
2022/03/16 02:12:06;;;;;;;30.97;23.47;;;;;;;;;;2073285;28;20173;-53
2022/03/16 02:13:10;;;;;;;33.53;24.37;;;;;;;;;;2072983;28;20973;-61
2022/03/16 02:14:12;;;;;;;33.00;24.77;;;;;;;;;;2072946;28;20725;-59
2022/03/16 02:15:12;;;;;;;33.63;24.80;;;;;;;;;;2064736;28;20618;-55
2022/03/16 02:16:12;;;;;;;34.23;24.37;;;;;;;;;;2064494;28;20177;-55
2022/03/16 02:17:12;;;;;;;34.53;24.97;;;;;;;;;;2071497;28;20216;-56
2022/03/16 02:18:14;;;;;;;32.47;23.43;;;;;;;;;;2071689;28;20612;-55
2022/03/16 02:19:15;;;;;;;30.80;24.23;;;;;;;;;;2072742;28;20275;-56
2022/03/16 02:20:15;;;;;;;32.43;24.03;;;;;;;;;;2073311;28;20552;-56
2022/03/16 02:21:16;;;;;;;33.03;24.03;;;;;;;;;;2073256;28;20188;-56
2022/03/16 02:22:17;;;;;;;30.67;23.70;;;;;;;;;;2073466;28;20173;-64
2022/03/16 02:23:18;;;;;;;31.00;22.60;;;;;;;;;;2073237;28;20230;-58
2022/03/16 02:24:18;;;;;;;33.90;25.13;;;;;;;;;;2035930;28;1032028;-56
2022/03/16 02:25:18;;;;;;;31.57;23.23;;;;;;;;;;2073448;28;20617;-57
2022/03/16 02:26:23;;;;;;;30.13;22.53;;;;;;;;;;2073866;28;20204;-55
2022/03/16 02:27:24;;;;;;;32.60;23.17;;;;;;;;;;2068524;28;20181;-58
2022/03/16 02:28:25;;;;;;;27.47;21.83;;;;;;;;;;2073256;28;20181;-56
2022/03/16 02:29:25;;;;;;;28.20;21.97;;;;;;;;;;2072866;28;20256;-56
2022/03/16 02:30:29;;;;;;;30.17;23.20;;;;;;;;;;2072667;28;20598;-55
2022/03/16 02:31:29;;;;;;;34.80;23.17;;;;;;;;;;2072579;28;20176;-56
2022/03/16 02:32:29;;;;;;;33.40;24.63;;;;;;;;;;2073340;28;20197;-56
2022/03/16 02:33:30;;;;;;;30.33;24.10;;;;;;;;;;2073495;28;20657;-56
2022/03/16 02:34:30;;;;;;;30.60;24.57;;;;;;;;;;2071876;28;20204;-54
2022/03/16 02:35:31;;;;;;;34.23;23.33;;;;;;;;;;2067558;28;20192;-57
2022/03/16 02:36:32;;;;;;;33.70;23.40;;;;;;;;;;2072729;28;20169;-58
2022/03/16 02:37:35;;;;;;;30.63;22.93;;;;;;;;;;2072029;28;20197;-55
2022/03/16 02:38:35;;;;;;;33.50;23.40;;;;;;;;;;2072369;28;20568;-56
2022/03/16 02:39:36;;;;;;;32.87;22.07;;;;;;;;;;2072584;28;20239;-57
2022/03/16 02:40:36;;;;;;;33.33;23.53;;;;;;;;;;2070581;28;20176;-59
2022/03/16 02:41:36;;;;;;;31.20;22.97;;;;;;;;;;2072840;28;20185;-59
2022/03/16 02:42:37;;;;;;;31.13;23.63;;;;;;;;;;2071928;28;20198;-57
2022/03/16 02:43:38;;;;;;;35.17;24.50;;;;;;;;;;2072823;28;20207;-57
2022/03/16 02:44:38;;;;;;;31.80;24.73;;;;;;;;;;2060869;28;20249;-58
2022/03/16 02:45:38;;;;;;;36.13;24.03;;;;;;;;;;2064039;28;20231;-54
2022/03/16 02:46:38;;;;;;;35.47;24.83;;;;;;;;;;2069525;28;20162;-57
2022/03/16 02:47:40;;;;;;;31.97;23.47;;;;;;;;;;2072880;28;20317;-58
2022/03/16 02:48:40;;;;;;;32.70;24.80;;;;;;;;;;2073052;28;20209;-55
2022/03/16 02:49:40;;;;;;;38.20;25.00;;;;;;;;;;2073508;28;20255;-58
2022/03/16 02:50:40;;;;;;;33.43;23.30;;;;;;;;;;2074092;28;20165;-58
2022/03/16 02:51:41;;;;;;;32.70;24.10;;;;;;;;;;2076070;28;20180;-58
2022/03/16 02:52:41;;;;;;;29.70;22.90;;;;;;;;;;2075671;28;20183;-58
2022/03/16 02:53:42;;;;;;;34.17;23.53;;;;;;;;;;2075381;28;20243;-57
2022/03/16 02:54:42;;;;;;;32.10;22.97;;;;;;;;;;2074590;28;20639;-59
2022/03/16 02:55:44;;;;;;;29.23;23.47;;;;;;;;;;2075228;28;20315;-56
2022/03/16 02:56:46;;;;;;;33.67;23.17;;;;;;;;;;2075256;28;20249;-58
2022/03/16 02:57:46;;;;;;;32.83;24.00;;;;;;;;;;2075193;28;20260;-57
2022/03/16 02:58:47;;;;;;;31.73;23.60;;;;;;;;;;2070745;28;20169;-55
2022/03/16 02:59:47;;;;;;;30.90;22.17;;;;;;;;;;2075949;28;20551;-57
2022/03/16 03:00:47;;;;;;;32.33;22.40;;;;;;;;;;2066530;28;20216;-56
2022/03/16 03:01:48;;;;;;;32.90;22.87;;;;;;;;;;2068040;28;20196;-56
2022/03/16 03:02:48;;;;;;;33.93;24.17;;;;;;;;;;2071850;28;20197;-57
2022/03/16 03:03:48;;;;;;;33.33;24.97;;;;;;;;;;2071687;28;20165;-58
2022/03/16 03:04:48;;;;;;;39.40;26.43;;;;;;;;;;2077444;28;20263;-57
2022/03/16 03:05:49;;;;;;;33.90;25.80;;;;;;;;;;2079975;28;20181;-61
2022/03/16 03:06:49;;;;;;;32.53;25.20;;;;;;;;;;2078673;28;20181;-58
2022/03/16 03:07:49;;;;;;;34.73;25.93;;;;;;;;;;2073607;28;20668;-58
2022/03/16 03:08:49;;;;;;;36.97;25.83;;;;;;;;;;2077906;28;20200;-58
2022/03/16 03:09:50;;;;;;;30.70;23.10;;;;;;;;;;2078369;28;20179;-57
2022/03/16 03:10:50;;;;;;;35.57;23.90;;;;;;;;;;2077288;28;20176;-60
2022/03/16 03:11:51;;;;;;;33.77;24.03;;;;;;;;;;2077390;28;20191;-59
2022/03/16 03:12:51;;;;;;;32.70;24.23;;;;;;;;;;2076602;28;20240;-57
2022/03/16 03:13:51;;;;;;;31.53;24.30;;;;;;;;;;2077850;28;20181;-56
2022/03/16 03:14:51;;;;;;;32.53;23.80;;;;;;;;;;2076280;28;20441;-58
2022/03/16 03:15:52;;;;;;;31.93;22.97;;;;;;;;;;2068803;28;20176;-58
2022/03/16 03:16:52;;;;;;;32.90;24.03;;;;;;;;;;2067861;28;20189;-54
2022/03/16 03:17:52;;;;;;;36.93;24.40;;;;;;;;;;2076359;28;20212;-55
2022/03/16 03:18:52;;;;;;;33.33;23.93;;;;;;;;;;2073100;28;20185;-57
2022/03/16 03:19:53;;;;;;;34.60;24.83;;;;;;;;;;2075504;28;20510;-56
2022/03/16 03:20:53;;;;;;;29.03;23.47;;;;;;;;;;2071944;28;20256;-58
2022/03/16 03:21:53;;;;;;;36.43;25.67;;;;;;;;;;2066828;28;20213;-56
2022/03/16 03:22:54;;;;;;;35.87;26.77;;;;;;;;;;2066428;28;20309;-55
2022/03/16 03:23:54;;;;;;;33.70;24.30;;;;;;;;;;2075253;28;20204;-55
2022/03/16 03:24:55;;;;;;;34.40;24.13;;;;;;;;;;2070950;28;20206;-58
2022/03/16 03:25:55;;;;;;;33.57;25.23;;;;;;;;;;2075233;28;20192;-54
2022/03/16 03:26:56;;;;;;;36.37;24.60;;;;;;;;;;2075124;28;20173;-57
2022/03/16 03:27:56;;;;;;;31.20;23.93;;;;;;;;;;2074236;28;20165;-58
2022/03/16 03:28:56;;;;;;;31.83;23.73;;;;;;;;;;2075627;28;20173;-57
2022/03/16 03:29:56;;;;;;;36.80;24.30;;;;;;;;;;2074671;28;20688;-54
2022/03/16 03:30:57;;;;;;;36.20;24.67;;;;;;;;;;2074935;28;20177;-57
2022/03/16 03:31:57;;;;;;;29.63;23.20;;;;;;;;;;2074337;28;20592;-56
2022/03/16 03:32:57;;;;;;;30.17;23.43;;;;;;;;;;2078838;28;20650;-58
2022/03/16 03:33:57;;;;;;;30.20;22.20;;;;;;;;;;2074291;28;20208;-55
2022/03/16 03:34:58;;;;;;;28.17;21.40;;;;;;;;;;2075540;28;20533;-55
2022/03/16 03:35:58;;;;;;;28.00;21.57;;;;;;;;;;2073020;28;20666;-57
2022/03/16 03:36:58;;;;;;;29.83;21.50;;;;;;;;;;2075083;28;20175;-58
2022/03/16 03:37:58;;;;;;;28.77;21.17;;;;;;;;;;2066551;28;20177;-59
2022/03/16 03:38:59;;;;;;;31.67;22.60;;;;;;;;;;2066764;28;20174;-57
2022/03/16 03:39:59;;;;;;;29.87;22.10;;;;;;;;;;2074911;28;20177;-56
2022/03/16 03:40:59;;;;;;;30.30;22.27;;;;;;;;;;2066681;28;20251;-57
2022/03/16 03:42:00;;;;;;;32.23;23.70;;;;;;;;;;2066207;28;20205;-59
2022/03/16 03:43:00;;;;;;;31.10;23.30;;;;;;;;;;2066599;28;20257;-58
2022/03/16 03:44:00;;;;;;;31.13;23.80;;;;;;;;;;2066209;28;20673;-56
2022/03/16 03:45:01;;;;;;;34.33;26.37;;;;;;;;;;2075506;28;20536;-55
2022/03/16 03:46:01;;;;;;;38.60;26.10;;;;;;;;;;2074438;28;20555;-58
2022/03/16 03:47:01;;;;;;;36.50;25.77;;;;;;;;;;2074791;28;20177;-56
2022/03/16 03:48:01;;;;;;;37.73;25.33;;;;;;;;;;2074366;28;20192;-57
2022/03/16 03:49:02;;;;;;;34.17;24.27;;;;;;;;;;2074977;28;20256;-56
2022/03/16 03:50:02;;;;;;;36.13;24.23;;;;;;;;;;2075155;28;20196;-56
2022/03/16 03:51:03;;;;;;;31.97;22.50;;;;;;;;;;2074722;28;20188;-56
2022/03/16 03:52:03;;;;;;;31.27;23.27;;;;;;;;;;2074346;28;20173;-57
2022/03/16 03:53:04;;;;;;;36.17;25.27;;;;;;;;;;2072771;28;20208;-56
2022/03/16 03:54:04;;;;;;;35.07;25.57;;;;;;;;;;2073033;28;20269;-57
2022/03/16 03:55:04;;;;;;;36.83;24.07;;;;;;;;;;2074454;28;20208;-58
2022/03/16 03:56:05;;;;;;;31.57;23.90;;;;;;;;;;2075433;28;20183;-55
2022/03/16 03:57:05;;;;;;;32.17;23.60;;;;;;;;;;2074603;28;20231;-56
2022/03/16 03:58:05;;;;;;;29.43;23.00;;;;;;;;;;2073295;28;20177;-57
2022/03/16 03:59:05;;;;;;;36.90;22.83;;;;;;;;;;2072536;28;20173;-59
2022/03/16 04:00:06;;;;;;;36.70;23.27;;;;;;;;;;2070745;28;20235;-59
2022/03/16 04:01:12;;;;;;;30.40;23.37;;;;;;;;;;2075925;28;20172;-59
2022/03/16 04:02:12;;;;;;;29.90;21.63;;;;;;;;;;2075980;28;20235;-56
2022/03/16 04:03:12;;;;;;;34.13;23.13;;;;;;;;;;2065456;28;20216;-55
2022/03/16 04:04:13;;;;;;;31.37;24.10;;;;;;;;;;2065053;28;20224;-57
2022/03/16 04:05:13;;;;;;;29.77;21.80;;;;;;;;;;2074698;28;20204;-56
2022/03/16 04:06:13;;;;;;;34.57;21.87;;;;;;;;;;2073332;28;20548;-57
2022/03/16 04:07:13;;;;;;;32.90;22.57;;;;;;;;;;2074334;28;20177;-55
2022/03/16 04:08:14;;;;;;;30.13;23.70;;;;;;;;;;2074144;28;20622;-59
2022/03/16 04:09:14;;;;;;;29.30;23.17;;;;;;;;;;2074279;28;20181;-57
2022/03/16 04:10:14;;;;;;;39.83;26.13;;;;;;;;;;2074035;28;20170;-58
2022/03/16 04:11:15;;;;;;;31.20;24.53;;;;;;;;;;2074480;28;20597;-57
2022/03/16 04:12:15;;;;;;;39.20;25.57;;;;;;;;;;2073508;28;20185;-56
2022/03/16 04:13:15;;;;;;;33.07;24.93;;;;;;;;;;2073398;28;20188;-55
2022/03/16 04:14:16;;;;;;;41.53;27.20;;;;;;;;;;2073665;28;20227;-55
2022/03/16 04:15:18;;;;;;;39.03;26.07;;;;;;;;;;2073611;28;20181;-59
2022/03/16 04:16:18;;;;;;;32.73;24.23;;;;;;;;;;2074219;28;20259;-56
2022/03/16 04:17:18;;;;;;;33.80;23.40;;;;;;;;;;2073193;28;20556;-57
2022/03/16 04:18:19;;;;;;;33.83;25.37;;;;;;;;;;2070058;28;20188;-56
2022/03/16 04:19:19;;;;;;;34.17;23.27;;;;;;;;;;2072197;28;20188;-58
2022/03/16 04:20:19;;;;;;;30.63;22.63;;;;;;;;;;2074276;28;20203;-57
2022/03/16 04:21:19;;;;;;;27.53;23.27;;;;;;;;;;2073462;28;20181;-54
2022/03/16 04:22:20;;;;;;;30.27;23.80;;;;;;;;;;2073225;28;20181;-55
2022/03/16 04:23:20;;;;;;;29.30;23.23;;;;;;;;;;2065297;28;20679;-56
2022/03/16 04:24:20;;;;;;;30.03;23.30;;;;;;;;;;2072981;23;20217;-62
2022/03/16 04:25:21;;;;;;;29.00;23.17;;;;;;;;;;2069983;28;20212;-58
2022/03/16 04:26:21;;;;;;;32.20;24.50;;;;;;;;;;2075330;28;20168;-57
2022/03/16 04:27:21;;;;;;;33.70;25.03;;;;;;;;;;2067275;28;20205;-56
2022/03/16 04:28:22;;;;;;;26.93;21.77;;;;;;;;;;2067364;28;20197;-59
2022/03/16 04:29:22;;;;;;;28.93;22.50;;;;;;;;;;2065133;28;20277;-59
2022/03/16 04:30:22;;;;;;;31.90;21.87;;;;;;;;;;2064675;28;20268;-60
2022/03/16 04:31:23;;;;;;;29.77;21.67;;;;;;;;;;2073171;28;20172;-59
2022/03/16 04:32:23;;;;;;;25.60;21.10;;;;;;;;;;2064523;28;20181;-57
2022/03/16 04:33:23;;;;;;;27.93;22.20;;;;;;;;;;2068769;28;20188;-59
2022/03/16 04:34:24;;;;;;;32.83;23.43;;;;;;;;;;2073569;28;20632;-59
2022/03/16 04:35:24;;;;;;;28.07;22.37;;;;;;;;;;2064677;28;20290;-58
2022/03/16 04:36:25;;;;;;;28.57;22.40;;;;;;;;;;2065883;28;20553;-60
2022/03/16 04:37:25;;;;;;;29.90;22.67;;;;;;;;;;2064667;28;20552;-59
2022/03/16 04:38:25;;;;;;;33.90;24.07;;;;;;;;;;2067710;28;20173;-61
2022/03/16 04:39:25;;;;;;;34.83;24.50;;;;;;;;;;2067632;28;20208;-61
2022/03/16 04:40:26;;;;;;;34.93;24.47;;;;;;;;;;2068368;28;20242;-58
2022/03/16 04:41:26;;;;;;;31.30;23.87;;;;;;;;;;2067341;28;20185;-58
2022/03/16 04:42:26;;;;;;;34.47;23.93;;;;;;;;;;2064210;28;20201;-59
2022/03/16 04:43:27;;;;;;;32.93;23.70;;;;;;;;;;2065707;28;20205;-58
2022/03/16 04:44:27;;;;;;;33.60;23.50;;;;;;;;;;2073754;28;20288;-60
2022/03/16 04:45:27;;;;;;;33.57;24.40;;;;;;;;;;2070551;28;20255;-60
2022/03/16 04:46:27;;;;;;;32.37;22.53;;;;;;;;;;2073256;28;20226;-62
2022/03/16 04:47:28;;;;;;;32.30;23.87;;;;;;;;;;2073153;28;20200;-62
2022/03/16 04:48:28;;;;;;;34.63;24.20;;;;;;;;;;2070066;28;20199;-60
2022/03/16 04:49:28;;;;;;;29.43;22.13;;;;;;;;;;2072408;28;20231;-61
2022/03/16 04:50:28;;;;;;;32.47;23.27;;;;;;;;;;2069856;28;20174;-60
2022/03/16 04:51:29;;;;;;;33.13;23.70;;;;;;;;;;2072522;28;20193;-59
2022/03/16 04:52:29;;;;;;;33.53;24.40;;;;;;;;;;2073895;28;20197;-59
2022/03/16 04:53:29;;;;;;;38.63;27.00;;;;;;;;;;2073770;28;20242;-60
2022/03/16 04:54:30;;;;;;;34.70;25.27;;;;;;;;;;2063954;28;20215;-60
2022/03/16 04:55:30;;;;;;;39.77;27.63;;;;;;;;;;2065228;28;20182;-59
2022/03/16 04:56:31;;;;;;;41.90;30.43;;;;;;;;;;2069019;28;20221;-60
2022/03/16 04:57:31;;;;;;;39.53;29.17;;;;;;;;;;2073410;28;20187;-59
2022/03/16 04:58:32;;;;;;;39.07;29.33;;;;;;;;;;2073960;28;20188;-58
2022/03/16 04:59:33;;;;;;;39.90;29.73;;;;;;;;;;2068765;28;20658;-61
2022/03/16 05:00:34;;;;;;;39.50;28.63;;;;;;;;;;2064760;28;20530;-60
2022/03/16 05:01:34;;;;;;;40.13;28.07;;;;;;;;;;2065336;28;20190;-60
2022/03/16 05:02:35;;;;;;;41.07;30.37;;;;;;;;;;2064104;28;20184;-62
2022/03/16 05:03:35;;;;;;;42.77;27.93;;;;;;;;;;2057395;28;20194;-64
2022/03/16 05:04:35;;;;;;;40.13;26.57;;;;;;;;;;2063213;28;20200;-59
2022/03/16 05:05:35;;;;;;;39.47;27.20;;;;;;;;;;2073393;28;20579;-62
2022/03/16 05:06:36;;;;;;;40.63;28.30;;;;;;;;;;2073453;28;20216;-60
2022/03/16 05:07:37;;;;;;;35.33;26.33;;;;;;;;;;2071878;28;20177;-59
2022/03/16 05:08:37;;;;;;;36.03;25.70;;;;;;;;;;2074265;28;20180;-62
2022/03/16 05:09:38;;;;;;;32.40;26.07;;;;;;;;;;2065534;28;20180;-62
2022/03/16 05:10:38;;;;;;;33.73;24.97;;;;;;;;;;2065134;28;20850;-59
2022/03/16 05:11:40;;;;;;;37.87;25.80;;;;;;;;;;2064997;28;20177;-58
2022/03/16 05:12:42;;;;;;;42.30;26.93;;;;;;;;;;2067690;28;20606;-60
2022/03/16 05:13:43;;;;;;;38.90;26.47;;;;;;;;;;2063937;28;20240;-62
2022/03/16 05:14:43;;;;;;;34.43;25.97;;;;;;;;;;2054892;28;20366;-60
2022/03/16 05:15:50;;;;;;;42.03;26.70;;;;;;;;;;2062424;28;20177;-60
2022/03/16 05:16:54;;;;;;;33.53;25.50;;;;;;;;;;2068808;28;20184;-59
2022/03/16 05:17:54;;;;;;;35.77;26.20;;;;;;;;;;2054293;28;20210;-58
2022/03/16 05:18:54;;;;;;;34.17;23.70;;;;;;;;;;2058782;28;20185;-56
2022/03/16 05:19:54;;;;;;;39.00;23.87;;;;;;;;;;2072744;28;20572;-63
2022/03/16 05:20:55;;;;;;;31.73;24.13;;;;;;;;;;2065167;28;20209;-59
2022/03/16 05:21:55;;;;;;;38.13;25.53;;;;;;;;;;2057023;28;20216;-59
2022/03/16 05:22:55;;;;;;;34.50;26.13;;;;;;;;;;2064353;28;20181;-59
2022/03/16 05:23:55;;;;;;;38.13;26.50;;;;;;;;;;2073634;28;20657;-61
2022/03/16 05:24:56;;;;;;;36.70;25.83;;;;;;;;;;2064231;28;20209;-60
2022/03/16 05:25:56;;;;;;;37.90;26.37;;;;;;;;;;2057259;28;20186;-61
2022/03/16 05:26:56;;;;;;;38.17;25.90;;;;;;;;;;2062205;28;20262;-59
2022/03/16 05:27:57;;;;;;;33.53;26.53;;;;;;;;;;2071346;28;20670;-59
2022/03/16 05:28:57;;;;;;;38.43;27.03;;;;;;;;;;2073315;28;20252;-58
2022/03/16 05:29:57;;;;;;;42.07;28.30;;;;;;;;;;2070303;28;20239;-57
2022/03/16 05:30:57;;;;;;;38.53;27.93;;;;;;;;;;2073370;28;20173;-57
2022/03/16 05:31:58;;;;;;;43.23;28.43;;;;;;;;;;2072578;28;20637;-57
2022/03/16 05:33:01;;;;;;;38.83;30.67;;;;;;;;;;2070862;28;20180;-58
2022/03/16 05:34:02;;;;;;;41.33;30.37;;;;;;;;;;2070945;28;20219;-60
2022/03/16 05:35:03;;;;;;;37.53;30.27;;;;;;;;;;2070206;28;20205;-55
2022/03/16 05:36:03;;;;;;;43.63;31.33;;;;;;;;;;2073109;28;20192;-59
2022/03/16 05:37:05;;;;;;;48.37;32.37;;;;;;;;;;2069876;28;20569;-61
2022/03/16 05:38:07;;;;;;;48.93;33.53;;;;;;;;;;2073471;28;20208;-60
2022/03/16 05:39:07;;;;;;;45.27;34.23;;;;;;;;;;2061380;28;20403;-59
2022/03/16 05:40:08;;;;;;;47.47;31.80;;;;;;;;;;2064681;28;20704;-55
2022/03/16 05:41:11;;;;;;;49.03;32.73;;;;;;;;;;2061349;28;20213;-57
2022/03/16 05:42:11;;;;;;;46.17;31.60;;;;;;;;;;2063433;28;20463;-60
2022/03/16 05:43:12;;;;;;;43.63;30.53;;;;;;;;;;2070353;28;20672;-61
2022/03/16 05:44:12;;;;;;;41.13;28.67;;;;;;;;;;2072439;28;20173;-59
2022/03/16 05:45:13;;;;;;;42.77;29.47;;;;;;;;;;2073618;28;20204;-60
2022/03/16 05:46:13;;;;;;;39.77;28.60;;;;;;;;;;2072415;28;20275;-61
2022/03/16 05:47:14;;;;;;;38.03;28.77;;;;;;;;;;2064857;28;20280;-58
2022/03/16 05:48:14;;;;;;;38.30;28.80;;;;;;;;;;2065466;28;20208;-60
2022/03/16 05:49:14;;;;;;;44.13;28.77;;;;;;;;;;2064932;28;20233;-60
2022/03/16 05:50:14;;;;;;;41.73;28.43;;;;;;;;;;2060431;28;20831;-58
2022/03/16 05:51:15;;;;;;;43.43;29.60;;;;;;;;;;2070716;28;20231;-60
2022/03/16 05:52:16;;;;;;;40.93;27.50;;;;;;;;;;2064598;28;20729;-60